createdAt,value
2023-01-12T00:01:35.426Z,1.77
2023-01-12T00:04:03.567Z,1.83
2023-01-12T00:06:34.267Z,0.73
2023-01-12T00:09:06.594Z,0.80
2023-01-12T00:11:34.630Z,1.83
2023-01-12T00:14:02.375Z,2.30
2023-01-12T00:16:37.760Z,1.17
2023-01-12T00:19:08.142Z,2.23
2023-01-12T00:21:56.517Z,1.10
2023-01-12T00:24:28.184Z,1.35
2023-01-12T00:26:56.104Z,1.47
2023-01-12T00:29:24.039Z,0.75
2023-01-12T00:31:51.802Z,2.42
2023-01-12T00:34:19.654Z,1.60
2023-01-12T00:36:47.547Z,1.48
2023-01-12T00:39:15.509Z,1.23
2023-01-12T00:42:01.829Z,1.50
2023-01-12T00:44:48.375Z,1.13
2023-01-12T00:47:16.309Z,1.13
2023-01-12T00:49:44.190Z,1.10
2023-01-12T00:52:29.435Z,1.73
2023-01-12T00:54:58.503Z,0.98
2023-01-12T00:57:26.939Z,1.15
2023-01-12T00:59:55.721Z,1.53
2023-01-12T01:02:23.883Z,1.20
2023-01-12T01:04:51.642Z,2.03
2023-01-12T01:07:21.855Z,1.60
2023-01-12T01:09:49.806Z,1.37
2023-01-12T01:12:17.772Z,2.38
2023-01-12T01:14:45.507Z,1.55
2023-01-12T01:17:14.872Z,1.97
2023-01-12T01:19:43.859Z,1.30
2023-01-12T01:22:13.224Z,1.75
2023-01-12T01:24:43.837Z,1.10
2023-01-12T01:27:11.611Z,1.73
2023-01-12T01:29:39.335Z,1.50
2023-01-12T01:32:07.608Z,2.13
2023-01-12T01:34:36.407Z,1.00
2023-01-12T01:37:04.248Z,1.98
2023-01-12T01:39:31.992Z,1.85
2023-01-12T01:42:01.231Z,1.83
2023-01-12T01:44:31.915Z,1.52
2023-01-12T01:47:00.978Z,1.88
2023-01-12T01:49:28.858Z,1.30
2023-01-12T01:52:01.147Z,1.38
2023-01-12T01:54:29.380Z,1.67
2023-01-12T01:56:57.091Z,1.45
2023-01-12T01:59:25.853Z,1.30
2023-01-12T02:01:53.649Z,1.42
2023-01-12T02:04:21.549Z,1.50
2023-01-12T02:06:49.507Z,1.17
2023-01-12T02:09:22.704Z,1.38
2023-01-12T02:12:09.230Z,1.27
2023-01-12T02:14:55.548Z,1.57
2023-01-12T02:17:27.308Z,1.65
2023-01-12T02:20:13.794Z,1.83
2023-01-12T02:23:00.187Z,1.33
2023-01-12T02:25:40.343Z,1.70
2023-01-12T02:28:26.227Z,1.35
2023-01-12T02:31:06.134Z,1.63
2023-01-12T02:33:52.504Z,1.33
2023-01-12T02:36:20.232Z,1.42
2023-01-12T02:38:49.163Z,0.90
2023-01-12T02:41:20.045Z,1.20
2023-01-12T02:43:47.763Z,1.70
2023-01-12T02:46:21.501Z,1.40
2023-01-12T02:48:51.564Z,1.38
2023-01-12T02:51:23.104Z,1.33
2023-01-12T02:53:54.517Z,1.23
2023-01-12T02:56:27.712Z,2.22
2023-01-12T02:58:56.169Z,1.47
2023-01-12T03:01:24.157Z,1.20
2023-01-12T03:03:52.186Z,2.17
2023-01-12T03:06:20.055Z,1.70
2023-01-12T03:08:48.591Z,1.38
2023-01-12T03:11:19.546Z,1.38
2023-01-12T03:13:55.530Z,0.75
2023-01-12T03:16:24.121Z,1.60
2023-01-12T03:18:54.955Z,1.40
2023-01-12T03:21:28.484Z,1.50
2023-01-12T03:24:05.250Z,1.40
2023-01-12T03:26:33.942Z,1.45
2023-01-12T03:29:04.327Z,1.48
2023-01-12T03:31:32.090Z,1.53
2023-01-12T03:33:59.849Z,1.98
2023-01-12T03:36:40.847Z,1.58
2023-01-12T03:39:12.556Z,1.98
2023-01-12T03:41:50.128Z,1.83
2023-01-12T03:44:20.298Z,1.27
2023-01-12T03:46:52.033Z,1.45
2023-01-12T03:49:28.001Z,2.17
2023-01-12T03:51:55.738Z,2.35
2023-01-12T03:54:23.534Z,1.75
2023-01-12T03:56:51.321Z,1.93
2023-01-12T03:59:19.109Z,1.30
2023-01-12T04:01:49.140Z,1.15
2023-01-12T04:04:17.175Z,1.83
2023-01-12T04:06:44.919Z,1.83
2023-01-12T04:09:12.565Z,1.83
2023-01-12T04:11:59.160Z,1.30
2023-01-12T04:14:26.854Z,0.73
2023-01-12T04:16:54.721Z,1.40
2023-01-12T04:19:22.503Z,1.05
2023-01-12T04:22:09.107Z,1.77
2023-01-12T04:24:36.853Z,1.52
2023-01-12T04:27:04.744Z,1.23
2023-01-12T04:29:32.479Z,0.98
2023-01-12T04:32:00.443Z,1.13
2023-01-12T04:34:28.236Z,1.10
2023-01-12T04:36:56.009Z,1.58
2023-01-12T04:39:23.777Z,1.20
2023-01-12T04:41:51.494Z,2.40
2023-01-12T04:44:19.307Z,1.27
2023-01-12T04:46:47.118Z,1.67
2023-01-12T04:49:14.848Z,1.27
2023-01-12T04:51:42.595Z,1.20
2023-01-12T04:54:10.946Z,0.65
2023-01-12T04:56:38.739Z,0.60
2023-01-12T04:59:08.949Z,0.93
2023-01-12T05:01:39.249Z,0.20
2023-01-12T05:04:08.112Z,1.03
2023-01-12T05:06:36.018Z,0.22
2023-01-12T05:09:22.564Z,0.43
2023-01-12T05:11:50.476Z,0.40
2023-01-12T05:14:18.240Z,0.55
2023-01-12T05:16:46.012Z,0.73
2023-01-12T05:19:13.879Z,0.20
2023-01-12T05:21:41.842Z,0.20
2023-01-12T05:24:12.888Z,0.43
2023-01-12T05:26:40.548Z,0.25
2023-01-12T05:29:09.260Z,0.60
2023-01-12T05:31:37.037Z,0.15
2023-01-12T05:34:04.867Z,0.50
2023-01-12T05:36:32.671Z,0.20
2023-01-12T05:39:00.467Z,0.10
2023-01-12T05:41:28.643Z,0.50
2023-01-12T05:43:56.475Z,0.63
2023-01-12T05:46:25.389Z,0.40
2023-01-12T05:48:53.546Z,0.63
2023-01-12T05:51:21.348Z,0.30
2023-01-12T05:53:49.313Z,0.70
2023-01-12T05:56:18.050Z,0.20
2023-01-12T05:58:55.548Z,0.10
2023-01-12T06:01:23.530Z,0.13
2023-01-12T06:03:54.902Z,0.30
2023-01-12T06:06:23.047Z,0.10
2023-01-12T06:08:52.774Z,0.20
2023-01-12T06:11:39.552Z,0.10
2023-01-12T06:14:07.359Z,0.45
2023-01-12T06:16:37.398Z,0.20
2023-01-12T06:19:05.167Z,0.57
2023-01-12T06:21:33.367Z,0.20
2023-01-12T06:24:01.132Z,0.35
2023-01-12T06:26:28.974Z,0.10
2023-01-12T06:28:56.758Z,0.20
2023-01-12T06:31:24.597Z,0.20
2023-01-12T06:33:53.430Z,0.20
2023-01-12T06:36:21.145Z,0.30
2023-01-12T06:38:48.896Z,0.20
2023-01-12T06:41:35.195Z,0.32
2023-01-12T06:44:02.992Z,0.30
2023-01-12T06:46:30.816Z,0.32
2023-01-12T06:48:59.013Z,0.20
2023-01-12T06:51:26.888Z,0.30
2023-01-12T06:53:54.797Z,0.20
2023-01-12T06:56:22.634Z,0.30
2023-01-12T06:58:50.375Z,0.40
2023-01-12T07:01:18.237Z,0.23
2023-01-12T07:03:46.156Z,0.30
2023-01-12T07:06:15.278Z,0.47
2023-01-12T07:08:43.573Z,0.60
2023-01-12T07:11:15.614Z,0.50
2023-01-12T07:13:43.494Z,0.70
2023-01-12T07:16:11.382Z,0.60
2023-01-12T07:18:39.172Z,1.02
2023-01-12T07:21:07.698Z,1.33
2023-01-12T07:23:35.612Z,2.22
2023-01-12T07:26:04.101Z,0.90
2023-01-12T07:28:33.885Z,0.82
2023-01-12T07:31:02.498Z,1.20
2023-01-12T07:33:30.482Z,1.77
2023-01-12T07:35:59.102Z,1.42
2023-01-12T07:38:30.072Z,3.65
2023-01-12T07:41:01.052Z,3.20
2023-01-12T07:43:28.976Z,3.90
2023-01-12T07:45:57.754Z,1.83
2023-01-12T07:48:26.758Z,2.53
2023-01-12T07:50:54.861Z,2.23
2023-01-12T07:53:22.771Z,2.78
2023-01-12T07:55:50.531Z,3.88
2023-01-12T07:58:18.235Z,2.10
2023-01-12T08:00:46.027Z,1.95
2023-01-12T08:03:16.883Z,1.88
2023-01-12T08:05:44.653Z,2.37
2023-01-12T08:08:12.446Z,2.13
2023-01-12T08:10:41.150Z,0.90
2023-01-12T08:13:08.941Z,2.03
2023-01-12T08:15:37.239Z,2.23
2023-01-12T08:18:06.883Z,1.65
2023-01-12T08:20:35.232Z,1.35
2023-01-12T08:23:12.769Z,1.40
2023-01-12T08:25:44.752Z,1.30
2023-01-12T08:28:19.835Z,2.42
2023-01-12T08:30:48.099Z,1.40
2023-01-12T08:33:15.889Z,1.83
2023-01-12T08:35:43.589Z,1.77
2023-01-12T08:38:11.336Z,0.88
2023-01-12T08:41:11.441Z,1.67
2023-01-12T08:43:58.169Z,1.20
2023-01-12T08:46:25.919Z,1.60
2023-01-12T08:48:54.140Z,1.87
2023-01-12T08:51:21.908Z,1.63
2023-01-12T08:53:49.683Z,1.15
2023-01-12T08:56:17.451Z,1.67
2023-01-12T08:58:45.138Z,1.05
2023-01-12T09:01:14.187Z,1.13
2023-01-12T09:03:42.246Z,1.38
2023-01-12T09:06:13.475Z,1.77
2023-01-12T09:08:41.417Z,1.73
2023-01-12T09:11:09.453Z,1.27
2023-01-12T09:13:37.081Z,2.07
2023-01-12T09:16:12.696Z,1.45
2023-01-12T09:18:41.020Z,1.33
2023-01-12T09:21:12.480Z,0.97
2023-01-12T09:23:40.300Z,1.08
2023-01-12T09:26:09.051Z,1.65
2023-01-12T09:28:36.772Z,1.95
2023-01-12T09:31:05.196Z,2.17
2023-01-12T09:33:32.975Z,1.92
2023-01-12T09:36:04.450Z,1.52
2023-01-12T09:38:32.387Z,2.47
2023-01-12T09:41:02.280Z,1.17
2023-01-12T09:43:48.692Z,2.05
2023-01-12T09:46:45.630Z,1.00
2023-01-12T09:49:13.543Z,1.23
2023-01-12T09:51:52.483Z,1.17
2023-01-12T09:54:20.227Z,1.55
2023-01-12T09:56:52.628Z,1.50
2023-01-12T09:59:36.363Z,1.88
2023-01-12T10:02:04.255Z,1.10
2023-01-12T10:04:32.687Z,1.63
2023-01-12T10:07:06.658Z,1.23
2023-01-12T10:09:38.022Z,1.05
2023-01-12T10:12:08.104Z,1.30
2023-01-12T10:14:41.209Z,1.73
2023-01-12T10:17:16.404Z,1.70
2023-01-12T10:19:53.337Z,2.03
2023-01-12T10:22:39.998Z,1.00
2023-01-12T10:25:25.813Z,1.73
2023-01-12T10:27:54.242Z,1.60
2023-01-12T10:30:30.815Z,1.57
2023-01-12T10:32:59.619Z,1.17
2023-01-12T10:35:27.468Z,1.25
2023-01-12T10:37:56.295Z,2.33
2023-01-12T10:40:30.729Z,1.52
2023-01-12T10:43:20.557Z,1.20
2023-01-12T10:46:03.663Z,1.23
2023-01-12T10:48:31.626Z,1.10
2023-01-12T10:51:00.362Z,1.48
2023-01-12T10:53:29.034Z,1.33
2023-01-12T10:55:56.855Z,0.83
2023-01-12T10:58:29.617Z,1.35
2023-01-12T11:00:57.457Z,1.55
2023-01-12T11:03:32.225Z,1.33
2023-01-12T11:06:18.509Z,1.60
2023-01-12T11:08:46.274Z,1.20
2023-01-12T11:11:40.223Z,1.05
2023-01-12T11:14:09.439Z,1.67
2023-01-12T11:16:40.099Z,1.42
2023-01-12T11:19:07.879Z,1.15
2023-01-12T11:21:36.365Z,1.37
2023-01-12T11:24:05.972Z,1.35
2023-01-12T11:26:36.492Z,1.52
2023-01-12T11:29:15.692Z,1.10
2023-01-12T11:31:43.607Z,1.33
2023-01-12T11:34:17.175Z,1.33
2023-01-12T11:36:47.271Z,1.00
2023-01-12T11:39:16.017Z,1.20
2023-01-12T11:42:18.492Z,1.13
2023-01-12T11:44:46.155Z,1.38
2023-01-12T11:47:41.548Z,1.20
2023-01-12T11:50:12.714Z,1.08
2023-01-12T11:52:40.531Z,1.30
2023-01-12T11:55:10.277Z,1.53
2023-01-12T11:57:37.974Z,1.55
2023-01-12T12:00:20.651Z,1.20
2023-01-12T12:02:57.381Z,1.77
2023-01-12T12:05:28.861Z,1.80
2023-01-12T12:08:02.449Z,1.20
2023-01-12T12:10:33.074Z,1.95
2023-01-12T12:13:09.940Z,1.80
2023-01-12T12:16:00.653Z,1.10
2023-01-12T12:18:37.617Z,1.60
2023-01-12T12:21:24.038Z,1.87
2023-01-12T12:24:01.854Z,0.82
2023-01-12T12:26:31.288Z,0.70
2023-01-12T12:29:02.007Z,1.45
2023-01-12T12:31:29.760Z,0.83
2023-01-12T12:33:57.473Z,1.23
2023-01-12T12:36:31.218Z,0.90
2023-01-12T12:39:11.090Z,1.27
2023-01-12T12:42:01.426Z,1.48
2023-01-12T12:44:56.622Z,0.85
2023-01-12T12:47:41.921Z,1.27
2023-01-12T12:50:21.410Z,1.27
2023-01-12T12:52:52.601Z,1.00
2023-01-12T12:55:20.273Z,1.75
2023-01-12T12:58:04.083Z,0.93
2023-01-12T13:00:46.847Z,0.82
2023-01-12T13:03:33.368Z,1.30
2023-01-12T13:06:19.701Z,1.00
2023-01-12T13:08:47.680Z,1.13
2023-01-12T13:11:15.431Z,1.55
2023-01-12T13:14:01.972Z,1.10
2023-01-12T13:16:29.777Z,1.15
2023-01-12T13:18:57.488Z,1.63
2023-01-12T13:21:28.045Z,1.15
2023-01-12T13:24:04.263Z,1.60
2023-01-12T13:26:32.344Z,3.65
2023-01-12T13:29:29.281Z,0.93
2023-01-12T13:32:15.635Z,1.40
2023-01-12T13:34:46.519Z,0.80
2023-01-12T13:37:17.030Z,1.20
2023-01-12T13:39:46.680Z,1.70
2023-01-12T13:42:33.226Z,3.75
2023-01-12T13:45:00.940Z,1.67
2023-01-12T13:47:35.356Z,1.00
2023-01-12T13:50:03.289Z,1.30
2023-01-12T13:52:32.232Z,2.42
2023-01-12T13:55:00.042Z,2.83
2023-01-12T13:57:28.787Z,1.63
2023-01-12T14:00:09.410Z,2.72
2023-01-12T14:02:37.531Z,2.60
2023-01-12T14:05:07.888Z,2.63
2023-01-12T14:07:41.739Z,1.58
2023-01-12T14:10:24.811Z,1.70
2023-01-12T14:13:09.310Z,3.65
2023-01-12T14:15:56.820Z,1.60
2023-01-12T14:18:41.739Z,1.85
2023-01-12T14:21:21.407Z,2.35
2023-01-12T14:23:49.078Z,1.80
2023-01-12T14:26:22.356Z,2.10
2023-01-12T14:28:51.166Z,1.85
2023-01-12T14:31:31.144Z,1.67
2023-01-12T14:33:59.554Z,1.20
2023-01-12T14:36:32.002Z,1.23
2023-01-12T14:38:59.930Z,1.40
2023-01-12T14:41:47.392Z,1.43
2023-01-12T14:44:59.953Z,1.27
2023-01-12T14:47:32.163Z,1.25
2023-01-12T14:50:16.006Z,1.40
2023-01-12T14:52:44.457Z,1.85
2023-01-12T14:55:16.000Z,1.80
2023-01-12T14:57:43.770Z,1.83
2023-01-12T15:00:21.576Z,2.05
2023-01-12T15:02:52.912Z,1.85
2023-01-12T15:05:20.567Z,1.45
2023-01-12T15:08:04.141Z,1.77
2023-01-12T15:10:39.465Z,2.22
2023-01-12T15:13:19.417Z,1.15
2023-01-12T15:16:06.179Z,1.03
2023-01-12T15:18:53.907Z,0.77
2023-01-12T15:21:40.986Z,1.15
2023-01-12T15:24:47.562Z,0.90
2023-01-12T15:27:22.301Z,1.08
2023-01-12T15:29:50.109Z,1.05
2023-01-12T15:32:19.264Z,0.80
2023-01-12T15:34:47.507Z,0.20
2023-01-12T15:37:18.521Z,0.70
2023-01-12T15:39:46.636Z,0.82
2023-01-12T15:42:18.046Z,0.43
2023-01-12T15:44:45.785Z,0.70
2023-01-12T15:47:13.929Z,1.02
2023-01-12T15:49:42.129Z,0.70
2023-01-12T15:52:16.656Z,0.38
2023-01-12T15:54:44.396Z,0.80
2023-01-12T15:57:12.888Z,0.50
2023-01-12T15:59:40.710Z,0.50
2023-01-12T16:02:20.320Z,0.75
2023-01-12T16:04:48.085Z,1.30
2023-01-12T16:07:15.838Z,0.60
2023-01-12T16:09:45.880Z,0.90
2023-01-12T16:12:13.728Z,1.10
2023-01-12T16:14:41.564Z,0.83
2023-01-12T16:17:09.323Z,1.95
2023-01-12T16:19:41.517Z,1.55
2023-01-12T16:22:15.397Z,1.58
2023-01-12T16:24:44.949Z,1.20
2023-01-12T16:27:12.707Z,2.25
2023-01-12T16:29:40.503Z,2.10
2023-01-12T16:32:08.120Z,1.37
2023-01-12T16:34:35.851Z,2.55
2023-01-12T16:37:03.598Z,1.67
2023-01-12T16:39:31.344Z,2.03
2023-01-12T16:42:05.079Z,1.65
2023-01-12T16:44:33.198Z,2.15
2023-01-12T16:47:00.895Z,1.27
2023-01-12T16:49:28.663Z,0.87
2023-01-12T16:51:57.027Z,1.75
2023-01-12T16:54:24.829Z,1.02
2023-01-12T16:56:52.741Z,1.03
2023-01-12T16:59:20.627Z,1.02
2023-01-12T17:01:48.543Z,0.80
2023-01-12T17:04:16.638Z,1.20
2023-01-12T17:06:44.413Z,1.02
2023-01-12T17:09:12.055Z,0.75
2023-01-12T17:11:44.090Z,0.93
2023-01-12T17:14:24.669Z,1.10
2023-01-12T17:16:53.392Z,0.80
2023-01-12T17:19:21.653Z,1.00
2023-01-12T17:21:50.367Z,1.00
2023-01-12T17:24:20.201Z,0.90
2023-01-12T17:26:52.468Z,1.13
2023-01-12T17:29:20.757Z,0.63
2023-01-12T17:31:49.595Z,0.73
2023-01-12T17:34:17.430Z,0.93
2023-01-12T17:36:45.233Z,0.90
2023-01-12T17:39:14.839Z,1.00
2023-01-12T17:42:01.405Z,0.85
2023-01-12T17:44:29.162Z,1.00
2023-01-12T17:46:57.079Z,1.10
2023-01-12T17:49:24.945Z,0.73
2023-01-12T17:51:53.081Z,1.55
2023-01-12T17:54:20.817Z,0.93
2023-01-12T17:56:48.579Z,1.50
2023-01-12T17:59:18.294Z,1.13
2023-01-12T18:01:46.403Z,2.03
2023-01-12T18:04:14.331Z,2.60
2023-01-12T18:06:42.231Z,1.60
2023-01-12T18:09:10.860Z,1.75
2023-01-12T18:11:38.956Z,1.90
2023-01-12T18:14:06.793Z,2.30
2023-01-12T18:16:34.589Z,1.35
2023-01-12T18:19:05.928Z,2.00
2023-01-12T18:21:33.855Z,2.10
2023-01-12T18:24:01.546Z,1.60
2023-01-12T18:26:30.282Z,1.63
2023-01-12T18:28:58.469Z,1.23
2023-01-12T18:31:27.031Z,1.52
2023-01-12T18:34:05.609Z,1.60
2023-01-12T18:36:34.095Z,1.13
2023-01-12T18:39:01.835Z,1.98
2023-01-12T18:41:48.349Z,1.55
2023-01-12T18:44:16.033Z,1.73
2023-01-12T18:47:03.045Z,1.95
2023-01-12T18:49:31.704Z,1.48
2023-01-12T18:52:18.271Z,1.23
2023-01-12T18:54:50.157Z,1.33
2023-01-12T18:57:19.466Z,1.80
2023-01-12T18:59:47.488Z,1.70
2023-01-12T19:02:15.428Z,1.43
2023-01-12T19:04:43.227Z,0.88
2023-01-12T19:07:13.547Z,1.67
2023-01-12T19:09:41.482Z,1.90
2023-01-12T19:12:09.731Z,1.42
2023-01-12T19:14:56.341Z,1.50
2023-01-12T19:17:27.373Z,1.30
2023-01-12T19:19:55.358Z,1.97
2023-01-12T19:22:41.785Z,1.50
2023-01-12T19:25:30.720Z,1.33
2023-01-12T19:28:17.529Z,1.53
2023-01-12T19:30:46.373Z,1.75
2023-01-12T19:33:17.732Z,1.70
2023-01-12T19:35:45.807Z,1.97
2023-01-12T19:38:25.311Z,1.83
2023-01-12T19:40:56.738Z,1.23
2023-01-12T19:43:27.413Z,2.72
2023-01-12T19:45:58.991Z,2.13
2023-01-12T19:48:27.418Z,1.88
2023-01-12T19:50:55.170Z,1.60
2023-01-12T19:53:23.662Z,2.17
2023-01-12T19:55:52.211Z,1.45
2023-01-12T19:58:22.206Z,1.13
2023-01-12T20:00:50.077Z,2.30
2023-01-12T20:03:19.031Z,2.15
2023-01-12T20:05:51.087Z,2.05
2023-01-12T20:08:19.188Z,2.08
2023-01-12T20:10:46.998Z,1.53
2023-01-12T20:13:14.783Z,2.67
2023-01-12T20:15:43.824Z,2.13
2023-01-12T20:18:13.904Z,1.67
2023-01-12T20:20:41.703Z,1.60
2023-01-12T20:23:09.391Z,1.90
2023-01-12T20:25:37.088Z,1.93
2023-01-12T20:28:04.889Z,2.10
2023-01-12T20:30:37.788Z,2.05
2023-01-12T20:33:06.778Z,2.70
2023-01-12T20:35:35.311Z,2.10
2023-01-12T20:38:07.050Z,2.95
2023-01-12T20:40:34.781Z,2.05
2023-01-12T20:43:02.503Z,2.40
2023-01-12T20:45:30.144Z,1.85
2023-01-12T20:47:58.252Z,3.15
2023-01-12T20:50:25.906Z,1.47
2023-01-12T20:52:54.493Z,2.15
2023-01-12T20:55:22.986Z,2.03
2023-01-12T20:57:50.719Z,1.45
2023-01-12T21:00:18.634Z,1.50
2023-01-12T21:02:46.372Z,2.88
2023-01-12T21:05:14.149Z,1.88
2023-01-12T21:07:41.817Z,2.87
2023-01-12T21:10:12.167Z,1.60
2023-01-12T21:12:39.835Z,2.20
2023-01-12T21:15:08.096Z,1.37
2023-01-12T21:17:39.103Z,2.10
2023-01-12T21:20:07.658Z,3.05
2023-01-12T21:22:35.301Z,2.55
2023-01-12T21:25:03.039Z,2.40
2023-01-12T21:27:30.749Z,1.85
2023-01-12T21:29:58.529Z,1.50
2023-01-12T21:32:27.830Z,2.47
2023-01-12T21:34:55.469Z,2.05
2023-01-12T21:37:23.181Z,3.38
2023-01-12T21:39:50.860Z,1.90
2023-01-12T21:42:47.903Z,2.15
2023-01-12T21:45:15.556Z,2.30
2023-01-12T21:47:46.052Z,2.78
2023-01-12T21:50:14.062Z,2.03
2023-01-12T21:52:42.198Z,1.50
2023-01-12T21:55:11.985Z,1.73
2023-01-12T21:57:40.017Z,3.10
2023-01-12T22:00:08.237Z,3.53
2023-01-12T22:02:36.035Z,2.97
2023-01-12T22:05:04.152Z,2.33
2023-01-12T22:07:31.800Z,1.70
2023-01-12T22:10:19.180Z,2.10
2023-01-12T22:12:47.443Z,2.00
2023-01-12T22:15:15.317Z,2.30
2023-01-12T22:17:43.022Z,3.00
2023-01-12T22:20:11.311Z,3.03
2023-01-12T22:22:39.183Z,2.17
2023-01-12T22:25:07.377Z,2.25
2023-01-12T22:27:35.421Z,3.28
2023-01-12T22:30:03.208Z,1.87
2023-01-12T22:32:30.951Z,2.55
2023-01-12T22:35:01.910Z,2.42
2023-01-12T22:37:29.673Z,2.35
2023-01-12T22:39:57.404Z,2.00
2023-01-12T22:42:43.934Z,2.05
2023-01-12T22:45:11.866Z,2.70
2023-01-12T22:47:47.872Z,2.40
2023-01-12T22:50:16.209Z,2.15
2023-01-12T22:52:43.865Z,2.75
2023-01-12T22:55:11.554Z,2.57
2023-01-12T22:57:39.237Z,2.65
2023-01-12T23:00:07.215Z,2.05
2023-01-12T23:02:53.732Z,2.28
2023-01-12T23:05:21.413Z,2.10
2023-01-12T23:07:49.138Z,2.08
2023-01-12T23:10:16.885Z,2.50
2023-01-12T23:13:04.705Z,2.20
2023-01-12T23:15:32.366Z,2.08
2023-01-12T23:18:00.142Z,2.55
2023-01-12T23:20:27.866Z,2.23
2023-01-12T23:22:55.563Z,3.38
2023-01-12T23:25:23.492Z,1.92
2023-01-12T23:27:52.414Z,1.48
2023-01-12T23:30:20.408Z,1.93
2023-01-12T23:32:48.732Z,2.47
2023-01-12T23:35:16.958Z,2.83
2023-01-12T23:37:44.905Z,1.27
2023-01-12T23:40:12.707Z,1.52
2023-01-12T23:42:40.435Z,1.83
2023-01-12T23:45:08.284Z,3.23
2023-01-12T23:47:36.002Z,4.07
2023-01-12T23:50:04.697Z,2.20
2023-01-12T23:52:32.311Z,2.45
2023-01-12T23:55:00.004Z,1.73
2023-01-12T23:57:29.145Z,2.13
2023-01-12T23:59:56.853Z,3.08
